createdAt,value
2017-09-14T00:01:34.542Z,88.60
2017-09-14T00:04:02.866Z,88.75
2017-09-14T00:06:31.180Z,88.08
2017-09-14T00:08:59.525Z,87.76
2017-09-14T00:11:27.838Z,87.50
2017-09-14T00:13:56.186Z,87.79
2017-09-14T00:16:24.499Z,87.53
2017-09-14T00:18:52.842Z,87.70
2017-09-14T00:21:21.154Z,87.05
2017-09-14T00:23:49.499Z,87.04
2017-09-14T00:26:17.814Z,86.96
2017-09-14T00:28:46.175Z,87.00
2017-09-14T00:31:14.494Z,87.21
2017-09-14T00:33:42.836Z,87.47
2017-09-14T00:36:11.150Z,87.00
2017-09-14T00:38:39.466Z,86.77
2017-09-14T00:41:07.806Z,85.73
2017-09-14T00:43:36.129Z,86.05
2017-09-14T00:46:04.477Z,85.37
2017-09-14T00:48:32.795Z,85.11
2017-09-14T00:51:01.111Z,85.11
2017-09-14T00:53:29.496Z,85.06
2017-09-14T00:55:57.810Z,84.22
2017-09-14T00:58:26.918Z,83.86
2017-09-14T01:00:56.008Z,84.37
2017-09-14T01:03:25.093Z,83.80
2017-09-14T01:05:53.442Z,83.72
2017-09-14T01:08:21.754Z,83.08
2017-09-14T01:10:50.858Z,82.88
2017-09-14T01:13:19.942Z,82.97
2017-09-14T01:15:49.031Z,83.00
2017-09-14T01:18:17.375Z,81.70
2017-09-14T01:20:45.692Z,81.55
2017-09-14T01:23:14.032Z,80.44
2017-09-14T01:25:42.348Z,79.45
2017-09-14T01:28:10.670Z,79.94
2017-09-14T01:30:39.014Z,79.84
2017-09-14T01:33:07.334Z,79.94
2017-09-14T01:35:35.680Z,80.10
2017-09-14T01:38:04.762Z,79.29
2017-09-14T01:40:33.089Z,79.46
2017-09-14T01:58:18.942Z,79.96
2017-09-14T02:00:47.285Z,79.58
2017-09-14T02:03:15.598Z,79.39
2017-09-14T02:05:43.941Z,80.00
2017-09-14T02:08:12.263Z,79.53
2017-09-14T02:10:40.580Z,79.49
2017-09-14T02:13:08.925Z,79.06
2017-09-14T02:15:37.238Z,79.62
2017-09-14T02:18:06.346Z,79.99
2017-09-14T02:20:34.663Z,79.80
2017-09-14T02:23:03.002Z,80.11
2017-09-14T02:25:31.320Z,80.95
2017-09-14T02:27:59.634Z,81.12
2017-09-14T02:30:28.755Z,81.31
2017-09-14T02:32:57.071Z,80.96
2017-09-14T02:35:25.415Z,80.60
2017-09-14T02:37:53.731Z,80.10
2017-09-14T02:40:22.863Z,79.67
2017-09-14T02:42:51.282Z,79.30
2017-09-14T02:45:19.599Z,78.65
2017-09-14T02:47:48.706Z,79.40
2017-09-14T02:50:17.032Z,79.58
2017-09-14T02:52:45.351Z,79.06
2017-09-14T02:55:13.695Z,79.08
2017-09-14T02:57:42.011Z,79.27
2017-09-14T03:00:10.355Z,78.61
2017-09-14T03:02:38.677Z,78.74
2017-09-14T03:05:07.014Z,77.97
2017-09-14T03:07:35.358Z,78.21
2017-09-14T03:10:03.685Z,78.59
2017-09-14T03:12:32.022Z,79.15
2017-09-14T03:15:00.345Z,78.76
2017-09-14T03:17:28.697Z,78.97
2017-09-14T03:19:57.783Z,78.72
2017-09-14T03:22:26.899Z,78.77
2017-09-14T03:24:56.008Z,78.47
2017-09-14T03:27:24.349Z,78.46
2017-09-14T03:29:52.690Z,78.79
2017-09-14T03:32:21.009Z,78.03
2017-09-14T03:34:49.351Z,77.72
2017-09-14T03:37:17.666Z,78.07
2017-09-14T03:39:45.982Z,79.68
2017-09-14T03:42:14.321Z,78.11
2017-09-14T03:44:43.427Z,78.06
2017-09-14T03:47:11.770Z,77.81
2017-09-14T03:49:40.091Z,78.23
2017-09-14T03:52:08.422Z,78.37
2017-09-14T03:54:36.761Z,78.73
2017-09-14T03:57:05.838Z,78.16
2017-09-14T03:59:34.175Z,78.01
2017-09-14T04:02:02.495Z,78.13
2017-09-14T04:04:30.822Z,78.34
2017-09-14T04:06:59.166Z,78.27
2017-09-14T04:09:27.489Z,78.48
2017-09-14T04:11:55.835Z,78.48
2017-09-14T04:14:24.914Z,78.67
2017-09-14T04:16:53.271Z,78.98
2017-09-14T04:19:21.586Z,79.29
2017-09-14T04:21:50.674Z,79.21
2017-09-14T04:24:19.018Z,78.98
2017-09-14T04:26:47.334Z,79.19
2017-09-14T04:29:15.990Z,78.36
2017-09-14T04:31:44.495Z,78.31
2017-09-14T04:34:12.866Z,78.10
2017-09-14T04:36:41.186Z,78.40
2017-09-14T04:39:10.274Z,78.46
2017-09-14T04:41:39.394Z,78.32
2017-09-14T04:44:07.713Z,78.74
2017-09-14T04:46:36.054Z,79.23
2017-09-14T04:49:04.378Z,79.43
2017-09-14T04:51:32.695Z,79.29
2017-09-14T04:54:01.803Z,79.51
2017-09-14T04:56:30.894Z,78.52
2017-09-14T04:59:00.018Z,78.86
2017-09-14T05:01:28.333Z,78.77
2017-09-14T05:03:56.690Z,78.99
2017-09-14T05:06:25.016Z,79.45
2017-09-14T05:08:53.345Z,78.59
2017-09-14T05:11:21.690Z,78.44
2017-09-14T05:13:50.785Z,78.82
2017-09-14T05:16:19.895Z,79.37
2017-09-14T05:18:48.978Z,79.50
2017-09-14T05:21:18.094Z,79.62
2017-09-14T05:23:47.178Z,80.21
2017-09-14T05:26:16.261Z,80.18
2017-09-14T05:28:44.606Z,80.51
2017-09-14T05:31:12.944Z,80.40
2017-09-14T05:33:42.054Z,81.14
2017-09-14T05:36:10.367Z,80.62
2017-09-14T05:38:39.458Z,81.00
2017-09-14T05:41:07.798Z,81.19
2017-09-14T05:43:36.887Z,81.19
2017-09-14T05:46:06.013Z,81.71
2017-09-14T05:48:34.932Z,81.90
2017-09-14T05:51:03.274Z,82.24
2017-09-14T05:53:31.743Z,83.18
2017-09-14T05:56:00.829Z,83.77
2017-09-14T05:58:29.193Z,84.05
2017-09-14T06:00:57.515Z,84.10
2017-09-14T06:03:25.866Z,84.28
2017-09-14T06:05:54.207Z,83.05
2017-09-14T06:08:22.527Z,83.42
2017-09-14T06:10:50.891Z,83.83
2017-09-14T06:13:19.206Z,83.70
2017-09-14T06:15:48.330Z,84.63
2017-09-14T06:18:16.643Z,83.89
2017-09-14T06:20:44.990Z,84.25
2017-09-14T06:23:13.344Z,84.63
2017-09-14T06:25:42.436Z,85.01
2017-09-14T06:28:11.542Z,85.58
2017-09-14T06:30:40.636Z,85.40
2017-09-14T06:33:09.744Z,85.11
2017-09-14T06:35:38.070Z,85.23
2017-09-14T06:38:06.431Z,86.04
2017-09-14T06:40:34.811Z,85.52
2017-09-14T06:43:03.145Z,86.94
2017-09-14T06:45:32.263Z,86.91
2017-09-14T06:48:00.579Z,86.89
2017-09-14T06:50:28.927Z,85.95
2017-09-14T06:52:57.256Z,85.62
2017-09-14T06:55:25.594Z,85.23
2017-09-14T06:57:53.970Z,85.63
2017-09-14T07:00:22.298Z,85.97
2017-09-14T07:02:50.647Z,85.44
2017-09-14T07:05:18.975Z,85.24
2017-09-14T07:07:47.316Z,84.45
2017-09-14T07:10:15.646Z,84.49
2017-09-14T07:12:44.018Z,84.49
2017-09-14T07:15:12.379Z,84.45
2017-09-14T07:17:40.702Z,83.78
2017-09-14T07:20:09.051Z,83.71
2017-09-14T07:22:37.367Z,83.44
2017-09-14T07:25:05.686Z,83.26
2017-09-14T07:27:34.058Z,83.98
2017-09-14T07:30:02.375Z,84.84
2017-09-14T07:32:30.722Z,85.39
2017-09-14T07:34:59.055Z,85.95
2017-09-14T07:37:28.137Z,86.42
2017-09-14T07:39:56.482Z,85.61
2017-09-14T07:42:24.839Z,85.34
2017-09-14T07:44:53.194Z,85.65
2017-09-14T07:47:22.282Z,85.76
2017-09-14T07:49:51.427Z,86.02
2017-09-14T07:52:19.754Z,86.24
2017-09-14T07:54:48.868Z,87.03
2017-09-14T07:57:18.000Z,88.67
2017-09-14T07:59:46.346Z,88.66
2017-09-14T08:02:15.469Z,89.30
2017-09-14T08:04:43.787Z,88.84
2017-09-14T08:07:12.138Z,88.97
2017-09-14T08:09:40.461Z,88.60
2017-09-14T08:12:08.781Z,89.05
2017-09-14T08:14:37.131Z,88.79
2017-09-14T08:17:06.240Z,89.90
2017-09-14T08:19:35.355Z,89.45
2017-09-14T08:22:03.706Z,89.59
2017-09-14T08:24:32.803Z,89.90
2017-09-14T08:27:01.912Z,91.24
2017-09-14T08:29:31.025Z,90.94
2017-09-14T08:31:59.366Z,91.18
2017-09-14T08:34:27.692Z,91.46
2017-09-14T08:36:56.011Z,91.47
2017-09-14T08:39:24.360Z,92.38
2017-09-14T08:41:52.682Z,92.55
2017-09-14T08:44:21.053Z,91.53
2017-09-14T08:46:49.371Z,91.42
2017-09-14T08:49:18.482Z,91.64
2017-09-14T08:51:46.807Z,91.13
2017-09-14T08:54:15.128Z,91.82
2017-09-14T08:56:44.234Z,92.39
2017-09-14T08:59:12.554Z,92.06
2017-09-14T09:01:40.907Z,90.30
2017-09-14T09:04:09.235Z,90.53
2017-09-14T09:06:37.579Z,89.37
2017-09-14T09:09:05.899Z,88.97
2017-09-14T09:11:34.226Z,87.58
2017-09-14T09:14:02.570Z,88.54
2017-09-14T09:16:31.666Z,87.90
2017-09-14T09:19:00.791Z,86.06
2017-09-14T09:21:29.131Z,87.06
2017-09-14T09:23:57.468Z,85.13
2017-09-14T09:26:25.815Z,85.34
2017-09-14T09:28:54.911Z,85.47
2017-09-14T09:31:24.016Z,84.79
2017-09-14T09:33:53.102Z,85.87
2017-09-14T09:36:22.215Z,84.19
2017-09-14T09:38:51.302Z,85.51
2017-09-14T09:41:20.440Z,81.09
2017-09-14T09:43:48.781Z,85.33
2017-09-14T09:46:17.869Z,85.17
2017-09-14T09:48:46.211Z,81.02
2017-09-14T09:51:14.536Z,81.73
2017-09-14T09:53:43.657Z,81.07
2017-09-14T09:56:11.982Z,81.00
2017-09-14T09:58:40.300Z,82.09
2017-09-14T10:01:09.422Z,82.61
2017-09-14T10:03:37.735Z,80.02
2017-09-14T10:06:06.079Z,79.30
2017-09-14T10:08:34.394Z,77.78
2017-09-14T10:11:02.710Z,79.14
2017-09-14T10:13:31.110Z,76.96
2017-09-14T10:15:59.461Z,75.88
2017-09-14T10:18:27.867Z,75.86
2017-09-14T10:20:56.207Z,72.43
2017-09-14T10:23:24.558Z,73.80
2017-09-14T10:25:52.934Z,75.89
2017-09-14T10:28:21.279Z,74.23
2017-09-14T10:30:50.398Z,75.89
2017-09-14T10:33:18.721Z,74.57
2017-09-14T10:35:47.079Z,74.08
2017-09-14T10:38:15.408Z,74.83
2017-09-14T10:40:44.563Z,74.54
2017-09-14T10:43:12.904Z,74.48
2017-09-14T10:45:42.019Z,75.01
2017-09-14T10:48:10.381Z,72.88
2017-09-14T10:50:38.746Z,71.88
2017-09-14T10:53:07.084Z,71.00
2017-09-14T10:55:35.452Z,72.57
2017-09-14T10:58:03.787Z,68.53
2017-09-14T11:00:32.898Z,70.12
2017-09-14T11:03:02.011Z,67.58
2017-09-14T11:05:30.356Z,68.58
2017-09-14T11:07:58.693Z,69.14
2017-09-14T11:10:27.022Z,68.68
2017-09-14T11:12:56.146Z,70.54
2017-09-14T11:15:24.479Z,71.08
2017-09-14T11:17:52.827Z,71.69
2017-09-14T11:20:21.143Z,73.57
2017-09-14T11:22:49.464Z,71.46
2017-09-14T11:25:17.818Z,70.65
2017-09-14T11:27:46.908Z,72.27
2017-09-14T11:30:15.276Z,73.16
2017-09-14T11:32:43.612Z,74.13
2017-09-14T11:35:11.959Z,71.92
2017-09-14T11:37:41.041Z,73.44
2017-09-14T11:40:09.366Z,73.05
2017-09-14T11:42:37.733Z,72.09
2017-09-14T11:45:06.068Z,70.77
2017-09-14T11:47:34.427Z,70.00
2017-09-14T11:50:02.754Z,69.45
2017-09-14T11:52:31.876Z,70.41
2017-09-14T11:55:00.197Z,70.55
2017-09-14T11:57:28.514Z,66.50
2017-09-14T11:59:57.634Z,66.93
2017-09-14T12:02:25.952Z,68.40
2017-09-14T12:04:54.303Z,67.80
2017-09-14T12:07:22.657Z,66.15
2017-09-14T12:09:51.751Z,65.57
2017-09-14T12:12:20.867Z,70.12
2017-09-14T12:14:49.182Z,70.18
2017-09-14T12:17:17.531Z,76.94
2017-09-14T12:19:45.859Z,79.00
2017-09-14T12:22:14.214Z,76.37
2017-09-14T12:24:42.542Z,76.09
2017-09-14T12:27:11.638Z,74.93
2017-09-14T12:29:40.773Z,69.85
2017-09-14T12:32:09.102Z,68.95
2017-09-14T12:34:37.446Z,66.88
2017-09-14T12:37:05.763Z,68.04
2017-09-14T12:39:34.108Z,65.34
2017-09-14T12:42:02.430Z,66.41
2017-09-14T12:44:30.758Z,66.50
2017-09-14T12:46:59.102Z,68.82
2017-09-14T12:49:28.247Z,70.75
2017-09-14T12:51:56.591Z,74.65
2017-09-14T12:54:25.682Z,76.31
2017-09-14T12:56:54.771Z,78.90
2017-09-14T12:59:23.112Z,78.71
2017-09-14T13:01:51.439Z,81.18
2017-09-14T13:04:20.562Z,77.77
2017-09-14T13:06:48.886Z,77.16
2017-09-14T13:09:17.203Z,75.39
2017-09-14T13:11:46.337Z,74.29
2017-09-14T13:14:14.660Z,73.25
2017-09-14T13:16:43.002Z,68.82
2017-09-14T13:19:11.328Z,68.63
2017-09-14T13:21:40.445Z,70.21
2017-09-14T13:24:09.530Z,72.33
2017-09-14T13:26:38.633Z,72.58
2017-09-14T13:29:07.759Z,70.37
2017-09-14T13:31:36.074Z,66.30
2017-09-14T13:34:04.420Z,65.56
2017-09-14T13:36:32.739Z,64.56
2017-09-14T13:39:01.099Z,62.93
2017-09-14T13:41:29.419Z,61.19
2017-09-14T13:43:58.506Z,60.41
2017-09-14T13:46:26.858Z,61.09
2017-09-14T13:48:55.196Z,60.09
2017-09-14T13:51:24.323Z,58.71
2017-09-14T13:53:52.658Z,58.86
2017-09-14T13:56:21.762Z,58.15
2017-09-14T13:58:50.899Z,55.81
2017-09-14T14:01:19.235Z,54.95
2017-09-14T14:03:48.358Z,54.81
2017-09-14T14:06:16.682Z,58.83
2017-09-14T14:08:45.038Z,63.49
2017-09-14T14:11:13.409Z,62.14
2017-09-14T14:13:41.742Z,58.64
2017-09-14T14:16:10.119Z,56.65
2017-09-14T14:18:38.451Z,58.39
2017-09-14T14:21:06.788Z,62.06
2017-09-14T14:23:35.925Z,67.87
2017-09-14T14:26:04.242Z,74.25
2017-09-14T14:28:32.602Z,76.51
2017-09-14T14:31:00.956Z,71.32
2017-09-14T14:33:29.286Z,71.48
2017-09-14T14:35:57.643Z,70.94
2017-09-14T14:38:25.993Z,71.39
2017-09-14T14:40:54.338Z,69.52
2017-09-14T14:43:22.672Z,63.68
2017-09-14T14:45:51.029Z,61.65
2017-09-14T14:48:19.399Z,62.11
2017-09-14T14:50:48.492Z,63.28
2017-09-14T14:53:17.629Z,62.87
2017-09-14T14:55:45.954Z,63.06
2017-09-14T14:58:14.291Z,62.67
2017-09-14T15:00:42.649Z,63.60
2017-09-14T15:03:10.975Z,66.33
2017-09-14T15:05:39.327Z,68.37
2017-09-14T15:08:07.667Z,70.13
2017-09-14T15:10:36.791Z,72.21
2017-09-14T15:13:05.135Z,74.65
2017-09-14T15:15:33.456Z,74.59
2017-09-14T15:18:01.808Z,76.88
2017-09-14T15:20:30.900Z,75.40
2017-09-14T15:22:59.252Z,76.20
2017-09-14T15:25:27.581Z,76.09
2017-09-14T15:27:56.707Z,77.90
2017-09-14T15:30:25.040Z,78.02
2017-09-14T15:32:54.156Z,78.76
2017-09-14T15:35:22.533Z,78.49
2017-09-14T15:37:53.658Z,79.69
2017-09-14T15:40:27.351Z,79.76
2017-09-14T15:43:01.226Z,78.46
2017-09-14T15:45:34.929Z,79.67
2017-09-14T15:48:04.143Z,79.62
2017-09-14T15:50:38.124Z,81.38
2017-09-14T15:53:06.448Z,80.89
2017-09-14T15:55:34.767Z,80.66
2017-09-14T15:58:03.890Z,80.11
2017-09-14T16:00:32.250Z,79.13
2017-09-14T16:03:01.373Z,78.56
2017-09-14T16:05:29.695Z,79.23
2017-09-14T16:07:58.012Z,78.96
2017-09-14T16:10:27.124Z,80.10
2017-09-14T16:12:55.452Z,77.57
2017-09-14T16:15:23.810Z,79.19
2017-09-14T16:17:52.126Z,79.21
2017-09-14T16:20:20.447Z,78.95
2017-09-14T16:22:48.782Z,79.49
2017-09-14T16:25:17.099Z,80.44
2017-09-14T16:27:45.474Z,80.01
2017-09-14T16:30:13.794Z,80.64
2017-09-14T16:32:42.111Z,80.30
2017-09-14T16:35:11.223Z,81.45
2017-09-14T16:37:40.303Z,81.32
2017-09-14T16:40:09.424Z,81.22
2017-09-14T16:42:37.749Z,82.59
2017-09-14T16:45:06.071Z,82.79
2017-09-14T16:47:35.175Z,82.97
2017-09-14T16:50:04.268Z,83.57
2017-09-14T16:52:33.392Z,83.91
2017-09-14T16:55:01.719Z,84.67
2017-09-14T16:57:30.062Z,83.83
2017-09-14T16:59:58.407Z,84.77
2017-09-14T17:02:27.493Z,85.05
2017-09-14T17:04:56.612Z,85.27
2017-09-14T17:07:24.935Z,86.36
2017-09-14T17:09:53.246Z,87.25
2017-09-14T17:12:21.594Z,88.67
2017-09-14T17:14:49.928Z,88.78
2017-09-14T17:17:19.054Z,85.79
2017-09-14T17:19:47.378Z,86.20
2017-09-14T17:22:15.742Z,86.00
2017-09-14T17:24:44.063Z,86.54
2017-09-14T17:27:13.143Z,85.56
2017-09-14T17:29:41.482Z,86.30
2017-09-14T17:32:09.807Z,86.97
2017-09-14T17:34:38.918Z,86.67
2017-09-14T17:37:08.002Z,87.21
2017-09-14T17:39:37.116Z,87.54
2017-09-14T17:42:06.197Z,88.44
2017-09-14T17:44:35.302Z,88.02
2017-09-14T17:47:04.414Z,87.99
2017-09-14T17:49:32.738Z,88.57
2017-09-14T17:52:01.085Z,88.10
2017-09-14T17:54:29.400Z,88.68
2017-09-14T17:56:57.727Z,88.70
2017-09-14T17:59:26.839Z,89.01
2017-09-14T18:01:55.165Z,89.19
2017-09-14T18:04:23.536Z,89.01
2017-09-14T18:06:51.846Z,89.78
2017-09-14T18:09:20.173Z,89.61
2017-09-14T18:11:48.514Z,89.69
2017-09-14T18:14:17.595Z,89.90
2017-09-14T18:16:45.944Z,90.23
2017-09-14T18:19:14.269Z,89.96
2017-09-14T18:21:43.395Z,90.35
2017-09-14T18:24:11.734Z,90.42
2017-09-14T18:26:40.060Z,90.64
2017-09-14T18:29:08.405Z,90.91
2017-09-14T18:31:37.486Z,91.61
2017-09-14T18:34:05.826Z,91.48
2017-09-14T18:36:34.138Z,90.17
2017-09-14T18:39:02.485Z,91.17
2017-09-14T18:41:30.803Z,91.38
2017-09-14T18:43:59.123Z,91.71
2017-09-14T18:46:27.462Z,91.42
2017-09-14T18:48:55.778Z,92.01
2017-09-14T18:51:24.914Z,92.23
2017-09-14T18:53:53.238Z,92.45
2017-09-14T18:56:21.555Z,92.38
2017-09-14T18:58:49.905Z,92.21
2017-09-14T19:01:18.992Z,92.89
2017-09-14T19:03:47.343Z,92.57
2017-09-14T19:06:15.681Z,91.92
2017-09-14T19:08:44.028Z,92.40
2017-09-14T19:11:13.177Z,92.31
2017-09-14T19:13:41.523Z,92.53
2017-09-14T19:16:09.873Z,92.83
2017-09-14T19:18:38.219Z,93.27
2017-09-14T19:21:06.534Z,93.35
2017-09-14T19:23:34.851Z,93.33
2017-09-14T19:26:03.975Z,92.78
2017-09-14T19:28:32.293Z,92.72
2017-09-14T19:31:00.617Z,92.82
2017-09-14T19:33:28.959Z,92.49
2017-09-14T19:35:57.276Z,92.57
2017-09-14T19:38:26.500Z,92.77
2017-09-14T19:40:54.867Z,92.73
2017-09-14T19:43:23.178Z,92.94
2017-09-14T19:45:51.579Z,92.95
2017-09-14T19:48:19.930Z,92.98
2017-09-14T19:50:48.263Z,93.27
2017-09-14T19:53:17.406Z,93.14
2017-09-14T19:55:45.761Z,93.14
2017-09-14T19:58:14.094Z,92.71
2017-09-14T20:00:42.562Z,92.71
2017-09-14T20:03:10.928Z,93.08
2017-09-14T20:05:39.270Z,92.97
2017-09-14T20:08:08.485Z,93.24
2017-09-14T20:10:36.842Z,93.54
2017-09-14T20:13:05.942Z,94.04
2017-09-14T20:15:35.067Z,93.62
2017-09-14T20:18:03.868Z,94.09
2017-09-14T20:20:32.736Z,93.90
2017-09-14T20:23:02.269Z,94.11
2017-09-14T20:25:30.675Z,93.68
2017-09-14T20:27:59.062Z,93.87
2017-09-14T20:30:27.415Z,94.13
2017-09-14T20:32:55.791Z,93.92
2017-09-14T20:35:24.274Z,93.55
2017-09-14T20:37:53.007Z,93.08
2017-09-14T20:40:21.691Z,93.14
2017-09-14T20:42:50.113Z,93.94
2017-09-14T20:45:18.461Z,94.05
2017-09-14T20:47:46.782Z,92.90
2017-09-14T20:50:15.100Z,92.88
2017-09-14T20:52:43.529Z,93.25
2017-09-14T20:55:11.904Z,92.78
2017-09-14T20:57:40.997Z,92.06
2017-09-14T21:00:10.105Z,92.33
2017-09-14T21:02:38.458Z,92.55
2017-09-14T21:05:06.796Z,92.60
2017-09-14T21:07:35.151Z,92.62
2017-09-14T21:10:03.495Z,92.59
2017-09-14T21:12:31.810Z,92.87
2017-09-14T21:15:00.156Z,92.59
2017-09-14T21:17:28.471Z,92.86
2017-09-14T21:19:56.794Z,92.10
2017-09-14T21:22:25.197Z,91.69
2017-09-14T21:24:53.528Z,91.46
2017-09-14T21:27:21.892Z,91.52
2017-09-14T21:29:50.239Z,91.24
2017-09-14T21:32:18.559Z,91.15
2017-09-14T21:34:46.899Z,91.28
2017-09-14T21:37:15.250Z,91.15
2017-09-14T21:39:43.567Z,91.72
2017-09-14T21:42:12.650Z,90.99
2017-09-14T21:44:41.035Z,91.52
2017-09-14T21:47:10.130Z,90.74
2017-09-14T21:49:38.447Z,91.51
2017-09-14T21:52:06.795Z,91.36
2017-09-14T21:54:35.119Z,91.87
2017-09-14T21:57:03.458Z,91.96
2017-09-14T21:59:31.802Z,91.72
2017-09-14T22:02:00.119Z,91.73
2017-09-14T22:04:29.206Z,91.56
2017-09-14T22:06:57.554Z,91.83
2017-09-14T22:09:25.871Z,91.11
2017-09-14T22:11:54.222Z,91.95
2017-09-14T22:14:22.579Z,91.99
2017-09-14T22:16:50.899Z,92.44
2017-09-14T22:19:19.228Z,92.92
2017-09-14T22:21:47.571Z,93.95
2017-09-14T22:24:15.902Z,92.90
2017-09-14T22:26:44.242Z,93.25
2017-09-14T22:29:13.371Z,92.36
2017-09-14T22:31:41.852Z,92.23
2017-09-14T22:34:10.303Z,92.22
2017-09-14T22:36:39.304Z,91.94
2017-09-14T22:39:08.570Z,92.19
2017-09-14T22:41:37.010Z,92.67
2017-09-14T22:44:05.508Z,92.61
2017-09-14T22:46:34.024Z,92.19
2017-09-14T22:49:02.363Z,92.28
2017-09-14T22:51:30.727Z,92.20
2017-09-14T22:53:59.814Z,91.82
2017-09-14T22:56:28.903Z,91.97
2017-09-14T22:58:58.019Z,92.00
2017-09-14T23:01:27.111Z,91.74
2017-09-14T23:03:56.195Z,92.78
2017-09-14T23:06:25.346Z,91.91
2017-09-14T23:08:53.658Z,92.02
2017-09-14T23:11:21.970Z,92.79
2017-09-14T23:13:51.078Z,92.24
2017-09-14T23:16:19.399Z,92.60
2017-09-14T23:18:47.719Z,91.69
2017-09-14T23:21:16.831Z,91.27
2017-09-14T23:23:45.911Z,91.22
2017-09-14T23:26:15.058Z,90.95
2017-09-14T23:28:43.399Z,91.18
2017-09-14T23:31:12.492Z,91.86
2017-09-14T23:33:41.585Z,92.71
2017-09-14T23:36:10.694Z,91.77
2017-09-14T23:38:39.774Z,91.27
2017-09-14T23:41:08.100Z,91.05
2017-09-14T23:43:36.462Z,91.31
2017-09-14T23:46:04.784Z,91.16
2017-09-14T23:48:33.101Z,91.47
2017-09-14T23:51:02.221Z,91.33
2017-09-14T23:53:30.538Z,90.95
2017-09-14T23:55:58.863Z,90.89
2017-09-14T23:58:27.970Z,90.63
